YHCT weather

Heathcote Emergency Airport
New South Wales, Australia

Public forecast

Using degrees Celsius for public forecast. Weather courtesy of forecast.io.

Closest aviation weather report (METAR) to Heathcote Emergency Airport

Closest report is Tamworth Airport, 31.5 nm (58.3 km) WNW. Retrieved 2019/10/17 22:30 UTC (0 seconds ago):

YSTW 172230Z AUTO 10004KT 9999 // NCD 16/M04 Q1020 RF000/0000

Closest aviation forecast (TAF) to Heathcote Emergency Airport

Closest forecast is Tamworth Airport, 31.5 nm (58.3 km) WNW. Retrieved 2019/10/17 18:36 UTC (4 hours ago):

TAF YSTW 171647Z 1718/1812 VRB03KT CAVOK FM180000 28008KT CAVOK FM180900 01008KT CAVOK